x

South Brooks (46132) Wave Buoy

4:00pm - Fri 17th Nov 2017 All times are PST. -8 hours from GMT.

  • Sig Wave height 4.6ft
  • Peak Period 8s
  • Wind
    18mph, 22mph gusts
  • Sea Temp 50°f
  • Air Temp 49°f
  • Sea Pressure 1017.5mb
  • South Brooks
  • South Brooks

More Historic Weather Station data

Upgrade to MSW Pro to gain access to the past 30 days of data for over 8000 Wavebouys and Weather Stations around the globe.

Join

Comparision Forecast

View Surf forecast
   
Fri 11/17 4:00pm 4.5ft 8s 18 22 mph 1017.5mb 50f 49f
3:00pm 4.5ft 8s 16 20 mph 1017.4mb 50f 48f
2:00pm 5ft 8s 16 20 mph 1017.1mb 50f 48f
1:00pm 4.5ft 8s 13 18 mph 1017mb 50f 48f
12:00pm 5ft 8s 9 11 mph 1016.9mb 51f 47f
11:00am 5ft 8s 4 7 mph 1016.4mb 50f 47f
10:00am 5ft 8s 7 9 mph 1015.6mb 50f 46f
9:00am 6ft 7s 4 7 mph 1014.9mb 50f 45f
8:00am 6ft 8s 4 7 mph 1014.2mb 50f 45f
7:00am 5.5ft 10s 7 11 mph 1013.1mb 50f 46f
6:00am 5.5ft 8s 11 13 mph 1012.2mb 50f 46f
5:00am 6ft 9s 16 20 mph 1011.4mb 50f 46f
4:00am 6ft 7s 9 11 mph 1010.8mb 50f 45f
3:00am 5.5ft 8s 13 16 mph 1010.1mb 51f 46f
2:00am 5.5ft 8s 11 13 mph 1009.2mb 51f 45f
1:00am 6ft 8s 11 20 mph 1008.4mb 50f 44f
12:00am 5.5ft 9s 13 18 mph 1007.2mb 50f 44f
Thu 11/16 11:00pm 6ft 10s 20 25 mph 1006.3mb 50f 44f
10:00pm 6ft 8s 13 18 mph 1005.7mb 50f 44f
9:00pm 6ft 8s 16 18 mph 1004.9mb 51f 45f
8:00pm 6ft 8s 16 20 mph 1004.3mb 51f 46f
7:00pm 5.5ft 9s 7 11 mph 1003.8mb 51f 45f
6:00pm 6.5ft 8s 4 9 mph 1003.4mb 50f 46f
5:00pm 5.5ft 9s 2 4 mph 1003.2mb 50f 44f
4:00pm 6ft 8s 4 7 mph 1002.9mb 51f 44f
3:00pm 6ft 9s 4 7 mph 1002.3mb 51f 45f
2:00pm 6ft 10s 2 4 mph 1001.9mb 50f 46f
1:00pm 6.5ft 8s 4 4 mph 1001.5mb 50f 44f
12:00pm 6ft 9s 11 13 mph 1000.9mb 51f 44f
11:00am 6.5ft 9s 11 16 mph 1000.6mb 51f 45f
10:00am 7ft 9s 11 18 mph 1000mb 51f 45f
9:00am 6.5ft 10s 11 22 mph 999.3mb 50f 44f
8:00am 7ft 10s 13 16 mph 998.7mb 50f 45f
7:00am 7ft 8s 13 18 mph 998.2mb 50f 46f
6:00am 8ft 8s 9 13 mph 997.9mb 50f 45f
5:00am 9ft 10s 11 16 mph 997.5mb 50f 45f
4:00am 9ft 9s 7 13 mph 997.1mb 50f 46f
3:00am 9ft 9s 9 13 mph 996.9mb 50f 48f
2:00am 8.5ft 8s 4 7 mph 996.7mb 50f 47f
1:00am 10ft 9s 7 9 mph 996.5mb 50f 47f
12:00am 9.5ft 9s 7 9 mph 996.4mb 50f 47f
Wed 11/15 11:00pm 9.5ft 10s 7 9 mph 995.9mb 51f 47f
10:00pm 10ft 10s 7 11 mph 995.7mb 50f 47f
9:00pm 10ft 10s 7 11 mph 995.5mb 49f 47f
8:00pm 10ft 10s 9 13 mph 995.3mb 50f 47f
7:00pm 11ft 11s 11 13 mph 995.3mb 51f 47f
6:00pm 11.5ft 10s 11 13 mph 995.2mb 51f 47f
5:00pm 12ft 10s 16 20 mph 994.7mb 51f 47f
4:00pm 11.5ft 10s 20 25 mph 994.3mb 52f 47f
3:00pm 12.5ft 10s 22 27 mph 993.6mb 52f 47f
2:00pm 13ft 11s 27 31 mph 993.1mb 52f 48f
1:00pm 12ft 11s 25 29 mph 992.5mb 52f 47f
12:00pm 13ft 11s 22 29 mph 992mb 52f 48f
11:00am 14.5ft 11s 25 31 mph 991.9mb 52f 47f
10:00am 14ft 11s 20 27 mph 992mb 52f 47f
9:00am 13.5ft 11s 25 29 mph 992.2mb 52f 49f
8:00am 12ft 9s 25 31 mph 992.2mb 51f 49f
7:00am 11ft 10s 22 31 mph 992.7mb 51f 46f
6:00am 10.5ft 10s 27 40 mph 993.7mb 50f 45f
5:00am 9.5ft 11s 18 25 mph 994.1mb 50f 49f
4:00am 9ft 10s 13 18 mph 995mb 50f 48f
3:00am 10ft 10s 13 18 mph 995.7mb 50f 48f
2:00am 9.5ft 9s 11 13 mph 996mb 51f 48f
1:00am 10ft 10s 13 18 mph 996.1mb 50f 47f
12:00am 10ft 9s 11 16 mph 995.9mb 50f 46f
Tue 11/14 11:00pm 9ft 9s 18 22 mph 996.2mb 50f 47f
10:00pm 10ft 10s 18 25 mph 996.2mb 51f 46f
9:00pm 10.5ft 9s 11 13 mph 996.3mb 51f 47f
8:00pm 11ft 9s 13 16 mph 997.2mb 51f 46f
7:00pm 11ft 8s 16 20 mph 997.6mb 51f 49f
6:00pm 11ft 11s 18 22 mph 998.5mb 51f 49f
5:00pm 9ft 8s 16 20 mph 999mb 51f 49f
4:00pm 9.5ft 8s 18 22 mph 999.7mb 50f 49f
3:00pm 9ft 8s 20 25 mph 999.7mb 50f 49f
2:00pm 8.5ft 8s 18 22 mph 1000.4mb 51f 47f
1:00pm 9.5ft 9s 9 16 mph 1001.4mb 51f 46f
12:00pm 9ft 9s 18 25 mph 1002mb 51f 47f
11:00am 9ft 8s 22 29 mph 1002.8mb 51f 51f
10:00am 9.5ft 9s 13 18 mph 1003.2mb 51f 49f
9:00am 9.5ft 10s 16 20 mph 1003.5mb 51f 50f
8:00am 10ft 8s 16 20 mph 1003.9mb 51f 50f
7:00am 10.5ft 8s 13 20 mph 1003.7mb 51f 49f
6:00am 10.5ft 8s 16 18 mph 1003.5mb 51f 50f
5:00am 10.5ft 8s 18 22 mph 1003.4mb 51f 50f
4:00am 11ft 9s 18 22 mph 1002.9mb 51f 50f
3:00am 11ft 10s 20 25 mph 1002.5mb 51f 49f
2:00am 11ft 10s 22 27 mph 1001.8mb 51f 49f